Home > Products > Valid Products > TAF

000
FTUS43 KGLD 191253 AAA
TAFMCK
TAF AMD
KMCK 191253Z 1913/2012 VRB03KT 4SM BR SCT005
      TEMPO 1913/1915 1/2SM FZFG VV005
     FM191500 24005KT P6SM FEW005
     FM191700 25008KT P6SM FEW200=



000
FTUS43 KGLD 191128
TAFMCK
TAF
KMCK 191128Z 1912/2012 VRB03KT 1/2SM FZFG VV005
      TEMPO 1912/1915 2SM BR BKN005
     FM191500 24005KT P6SM FEW005
     FM191700 25008KT P6SM FEW200=



000
FTUS43 KGLD 191128
TAFGLD
TAF
KGLD 191128Z 1912/2012 27005KT P6SM SKC
     FM191800 24008KT P6SM FEW200=



000
FTUS43 KGLD 191128
TAFMCK
TAF
KMCK 191128Z 1912/2012 VRB03KT 1/2SM FZFG VV005
      TEMPO 1912/1915 2SM BR BKN005
     FM191500 24005KT P6SM FEW005
     FM191700 25008KT P6SM FEW200=



000
FTUS43 KGLD 190955 AAB
TAFGLD
TAF AMD
KGLD 190955Z 1910/2006 VRB04KT P6SM SCT060
      TEMPO 1911/1913 3SM BR SCT010
     FM191300 26006KT P6SM SCT010 SCT120
     FM192100 23010KT P6SM SCT200=



000
FTUS43 KGLD 190955 AAB
TAFGLD
TAF AMD
KGLD 190955Z 1910/2006 VRB04KT P6SM SCT060
      TEMPO 1911/1913 3SM BR SCT010
     FM191300 26006KT P6SM SCT010 SCT120
     FM192100 23010KT P6SM SCT200=



000
FTUS43 KGLD 190950 AAA
TAFMCK
TAF AMD
KMCK 190950Z 1910/2006 VRB05KT 1/4SM FZFG VV002
     FM191200 VRB04KT 1SM BR SCT005 BKN010
     FM191500 27006KT P6SM SCT120
     FM192000 24007KT P6SM SCT150=



000
FTUS43 KGLD 190950 AAA
TAFMCK
TAF AMD
KMCK 190950Z 1910/2006 VRB05KT 1/4SM FZFG VV002
     FM191200 VRB04KT 1SM BR SCT005 BKN010
     FM191500 27006KT P6SM SCT120
     FM192000 24007KT P6SM SCT150=



000
FTUS43 KGLD 190950 AAA
TAFMCK
TAF AMD
KMCK 190950Z 1910/2006 VRB05KT 1/4SM FZFG VV002
     FM191200 VRB04KT 1SM BR SCT005 BKN010
     FM191500 27006KT P6SM SCT120
     FM192000 24007KT P6SM SCT150=



000
FTUS43 KGLD 190950 AAA
TAFMCK
TAF AMD
KMCK 190950Z 1910/2006 VRB05KT 1/4SM FZFG VV002
     FM191200 VRB04KT 1SM BR SCT005 BKN010
     FM191500 27006KT P6SM SCT120
     FM192000 24007KT P6SM SCT150=



000
FTUS43 KGLD 190520
TAFGLD
TAF
KGLD 190520Z 1906/2006 VRB04KT 6SM BR BKN060
      TEMPO 1908/1912 3SM BR SCT010
     FM191300 26006KT P6SM SCT010 SCT120
     FM192100 23010KT P6SM SCT200=



000
FTUS43 KGLD 190520
TAFMCK
TAF
KMCK 190520Z 1906/2006 VRB05KT 1/4SM FZFG OVC002
      TEMPO 1906/1910 2SM BR BKN006
     FM191000 VRB04KT 1SM BR SCT005 BKN010
     FM191500 27006KT P6SM SCT120
     FM192000 24007KT P6SM SCT150=



000
FTUS43 KGLD 190404 AAA
TAFMCK
TAF AMD
KMCK 190404Z 1904/1924 VRB05KT 5SM BR OVC006
      TEMPO 1906/1910 1SM BR BKN005
     FM191500 27006KT P6SM SCT120
     FM192000 23007KT P6SM SCT150=



000
FTUS43 KGLD 190404 AAA
TAFMCK
TAF AMD
KMCK 190404Z 1904/1924 VRB05KT 5SM BR OVC006
      TEMPO 1906/1910 1SM BR BKN005
     FM191500 27006KT P6SM SCT120
     FM192000 23007KT P6SM SCT150=



000
FTUS43 KGLD 190404 AAA
TAFMCK
TAF AMD
KMCK 190404Z 1904/1924 VRB05KT 5SM BR OVC006
      TEMPO 1906/1910 1SM BR BKN005
     FM191500 27006KT P6SM SCT120
     FM192000 23007KT P6SM SCT150=



000
FTUS43 KGLD 190404 AAA
TAFMCK
TAF AMD
KMCK 190404Z 1904/1924 VRB05KT 5SM BR OVC006
      TEMPO 1906/1910 1SM BR BKN005
     FM191500 27006KT P6SM SCT120
     FM192000 23007KT P6SM SCT150=



000
FTUS43 KGLD 190300 AAA
TAFGLD
TAF AMD
KGLD 190300Z 1903/1924 VRB04KT 6SM BR BKN060
      TEMPO 1904/1908 3SM BR SCT010
     FM191200 24004KT P6SM SCT010 SCT120
     FM192000 23010KT P6SM SCT200=



000
FTUS43 KGLD 182320
TAFMCK
TAF
KMCK 182320Z 1900/1924 VRB05KT P6SM SCT008 BKN250
      TEMPO 1900/1904 OVC008
     FM190600 25006KT 5SM BR BKN200
      TEMPO 1906/1909 1 1/2SM BR BKN005
     FM191500 27006KT P6SM SCT120
     FM192000 23007KT P6SM SCT150=



000
FTUS43 KGLD 182320
TAFGLD
TAF
KGLD 182320Z 1900/1924 35005KT P6SM SCT200
     FM190300 VRB04KT P6SM BKN060
      TEMPO 1904/1908 3SM BR SCT010
     FM191200 24004KT P6SM SCT010 SCT120
     FM192000 23010KT P6SM SCT200=



000
FTUS43 KGLD 182320
TAFMCK
TAF
KMCK 182320Z 1900/1924 VRB05KT P6SM SCT008 BKN250
      TEMPO 1900/1904 OVC008
     FM190600 25006KT 5SM BR BKN200
      TEMPO 1906/1909 1 1/2SM BR BKN005
     FM191500 27006KT P6SM SCT120
     FM192000 23007KT P6SM SCT150=



000
FTUS43 KGLD 182107 AAA
TAFMCK
TAF AMD
KMCK 182107Z 1821/1918 23007KT P6SM OVC008
     FM182300 VRB05KT P6SM BKN250
     FM190600 25006KT 5SM BR BKN200
     FM191500 27006KT P6SM SCT120=



000
FTUS43 KGLD 182107 AAA
TAFMCK
TAF AMD
KMCK 182107Z 1821/1918 23007KT P6SM OVC008
     FM182300 VRB05KT P6SM BKN250
     FM190600 25006KT 5SM BR BKN200
     FM191500 27006KT P6SM SCT120=



000
FTUS43 KGLD 181817 AAA
TAFGLD
TAF AMD
KGLD 181817Z 1818/1918 VRB05KT P6SM SCT200
     FM190300 25007KT P6SM BKN060=



000
FTUS43 KGLD 181741
TAFMCK
TAF
KMCK 181741Z 1818/1918 23007KT P6SM OVC008
     FM182100 VRB05KT P6SM BKN250
     FM190600 25006KT 5SM BR BKN200
     FM191500 27006KT P6SM SCT120=



000
FTUS43 KGLD 181741
TAFMCK
TAF
KMCK 181741Z 1818/1918 23007KT P6SM OVC008
     FM182100 VRB05KT P6SM BKN250
     FM190600 25006KT 5SM BR BKN200
     FM191500 27006KT P6SM SCT120=



000
FTUS43 KGLD 181741
TAFGLD
TAF
KGLD 181741Z 1818/1918 23006KT P6SM BKN005
     FM181900 VRB05KT P6SM SCT200
     FM190300 25007KT P6SM BKN060=



000
FTUS43 KGLD 181622 AAA
TAFMCK
TAF AMD
KMCK 181622Z 1816/1912 VRB04KT P6SM BKN015
     FM181900 22005KT P6SM BKN035=



000
FTUS43 KGLD 181622 AAA
TAFMCK
TAF AMD
KMCK 181622Z 1816/1912 VRB04KT P6SM BKN015
     FM181900 22005KT P6SM BKN035=



000
FTUS43 KGLD 181612 AAC
TAFGLD
TAF AMD
KGLD 181612Z 1816/1912 VRB05KT 1/2SM FG OVC003
     FM181700 25006KT P6SM OVC007
      TEMPO 1817/1818 1SM BR OVC003
     FM181800 24006KT P6SM BKN015
     FM182000 30006KT P6SM BKN035=



000
FTUS43 KGLD 181459 AAB
TAFGLD
TAF AMD
KGLD 181459Z 1815/1912 25006KT 5SM BR BKN007
      TEMPO 1815/1816 1/2SM FG OVC003
     FM181700 24006KT P6SM BKN015
     FM182000 30006KT P6SM BKN035=



000
FTUS43 KGLD 181202 AAA
TAFGLD
TAF AMD
KGLD 181202Z 1812/1912 VRB03KT 1/4SM FZFG VV002
      TEMPO 1812/1815 3SM BR BKN005
     FM181500 25006KT 5SM BR BKN007
     FM182000 30006KT P6SM BKN035=



000
FTUS43 KGLD 181202 AAA
TAFGLD
TAF AMD
KGLD 181202Z 1812/1912 VRB03KT 1/4SM FZFG VV002
      TEMPO 1812/1815 3SM BR BKN005
     FM181500 25006KT 5SM BR BKN007
     FM182000 30006KT P6SM BKN035=



000
FTUS43 KGLD 181135
TAFGLD
TAF
KGLD 181135Z 1812/1912 VRB03KT 1/4SM FZFG VV002
      TEMPO 1814/1815 1SM BR BKN005
     FM181500 25006KT 5SM BR BKN007
     FM182000 30006KT P6SM BKN035=



000
FTUS43 KGLD 181135
TAFMCK
TAF
KMCK 181135Z 1812/1912 VRB03KT 3SM BR SCT005 BKN015
     FM181300 VRB03KT 1/2SM FZFG VV002
      TEMPO 1813/1815 1SM BR BKN005
     FM181500 VRB04KT 4SM BR BKN015
     FM181900 22005KT P6SM BKN035=



000
FTUS43 KGLD 181135
TAFMCK
TAF
KMCK 181135Z 1812/1912 VRB03KT 3SM BR SCT005 BKN015
     FM181300 VRB03KT 1/2SM FZFG VV002
      TEMPO 1813/1815 1SM BR BKN005
     FM181500 VRB04KT 4SM BR BKN015
     FM181900 22005KT P6SM BKN035=



000
FTUS43 KGLD 180944 AAA
TAFMCK
TAF AMD
KMCK 180944Z 1810/1906 VRB05KT 6SM BR SCT005 BKN015
      TEMPO 1811/1813 1SM BR BKN005
     FM181600 VRB04KT P6SM BKN020
     FM182100 21004KT P6SM BKN035
     FM190000 22006KT P6SM SCT025 BKN100=



000
FTUS43 KGLD 180944 AAA
TAFMCK
TAF AMD
KMCK 180944Z 1810/1906 VRB05KT 6SM BR SCT005 BKN015
      TEMPO 1811/1813 1SM BR BKN005
     FM181600 VRB04KT P6SM BKN020
     FM182100 21004KT P6SM BKN035
     FM190000 22006KT P6SM SCT025 BKN100=



000
FTUS43 KGLD 180820 AAA
TAFGLD
TAF AMD
KGLD 180820Z 1808/1906 VRB03KT 6SM BR SCT015 OVC070
      TEMPO 1810/1814 1/2SM FZFG BKN005
     FM181500 25006KT 5SM BR BKN007
     FM182000 26004KT 6SM BR BKN020
     FM190000 24006KT P6SM SCT025 BKN100=



000
FTUS43 KGLD 180820 AAA
TAFGLD
TAF AMD
KGLD 180820Z 1808/1906 VRB03KT 6SM BR SCT015 OVC070
      TEMPO 1810/1814 1/2SM FZFG BKN005
     FM181500 25006KT 5SM BR BKN007
     FM182000 26004KT 6SM BR BKN020
     FM190000 24006KT P6SM SCT025 BKN100=



000
FTUS43 KGLD 180520
TAFGLD
TAF
KGLD 180520Z 1806/1906 VRB05KT 1/2SM -SHSN FZFG VV003
      TEMPO 1806/1809 3SM -SHSN BR OVC005
     FM180900 VRB03KT 1/2SM FZFG VV004
     FM181500 25006KT 3SM BR BKN007
     FM182000 26004KT 6SM BR BKN020
     FM190000 24006KT P6SM SCT025 BKN100=



000
FTUS43 KGLD 180520
TAFMCK
TAF
KMCK 180520Z 1806/1906 VRB05KT 1SM -SHSN BR OVC002
      TEMPO 1806/1809 3SM -SHSN BR OVC005
     FM181600 VRB04KT 5SM BR OVC006
     FM182100 21004KT 6SM BR BKN025
     FM190000 22006KT P6SM SCT025 BKN100=



000
FTUS43 KGLD 180520
TAFMCK
TAF
KMCK 180520Z 1806/1906 VRB05KT 1SM -SHSN BR OVC002
      TEMPO 1806/1809 3SM -SHSN BR OVC005
     FM181600 VRB04KT 5SM BR OVC006
     FM182100 21004KT 6SM BR BKN025
     FM190000 22006KT P6SM SCT025 BKN100=



000
FTUS43 KGLD 172320
TAFMCK
TAF
KMCK 172320Z 1800/1824 11007KT 1 1/2SM -FZDZ BR OVC004
      TEMPO 1800/1804 1/2SM -FZDZ FZFG VV002
     FM180500 VRB05KT 1 1/2SM -SHSN BR OVC004
      TEMPO 1805/1809 1/2SM -SHSN FZFG VV002
     FM181600 VRB04KT 5SM BR OVC006
     FM182100 21004KT 6SM BR BKN025=



000
FTUS43 KGLD 172320
TAFMCK
TAF
KMCK 172320Z 1800/1824 11007KT 1 1/2SM -FZDZ BR OVC004
      TEMPO 1800/1804 1/2SM -FZDZ FZFG VV002
     FM180500 VRB05KT 1 1/2SM -SHSN BR OVC004
      TEMPO 1805/1809 1/2SM -SHSN FZFG VV002
     FM181600 VRB04KT 5SM BR OVC006
     FM182100 21004KT 6SM BR BKN025=



000
FTUS43 KGLD 172320
TAFGLD
TAF
KGLD 172320Z 1800/1824 07005KT 1/4SM -FZDZ FZFG VV002
     FM180430 VRB05KT 1/4SM -SHSN FZFG VV002
     FM181000 VRB03KT 1/2SM FZFG VV004
     FM181500 25006KT 3SM BR BKN007
     FM182000 26004KT 6SM BR BKN020=



000
FTUS43 KGLD 172053 AAA
TAFMCK
TAF AMD
KMCK 172053Z 1721/1818 11007KT 4SM -FZDZ BR OVC003
     FM180400 09005KT 2SM BR OVC003
      TEMPO 1805/1809 1SM -SHSN BR
     FM181600 07004KT 5SM BR OVC006=



000
FTUS43 KGLD 172053 AAA
TAFMCK
TAF AMD
KMCK 172053Z 1721/1818 11007KT 4SM -FZDZ BR OVC003
     FM180400 09005KT 2SM BR OVC003
      TEMPO 1805/1809 1SM -SHSN BR
     FM181600 07004KT 5SM BR OVC006=



000
FTUS43 KGLD 172049 AAA
TAFGLD
TAF AMD
KGLD 172049Z 1721/1818 11008KT 1/4SM -FZDZ FZFG OVC003
     FM180200 VRB05KT 1/2SM -SHSN FZFG OVC004
     FM181000 VRB03KT 1/2SM FZFG VV002
     FM181500 25006KT 3SM BR BKN007=



000
FTUS43 KGLD 171734
TAFMCK
TAF
KMCK 171734Z 1718/1818 12009KT 2SM -FZDZ BR OVC002
     FM172000 11007KT 5SM BR OVC007
     FM180400 09005KT 3SM BR OVC003
      TEMPO 1805/1809 1SM -SHSN BR
     FM181600 07004KT 5SM BR OVC006=



000
FTUS43 KGLD 171734
TAFGLD
TAF
KGLD 171734Z 1718/1818 11008KT 1/4SM -FZDZ FG OVC003
     FM172000 13008KT 1SM -FZDZ BR OVC004
     FM180000 11006KT 2SM BR OVC006
     FM180300 VRB05KT 1SM -SHSN BR OVC004
     FM181000 VRB03KT 1/2SM FG VV002
     FM181500 25006KT 3SM BR BKN007=



000
FTUS43 KGLD 171734
TAFMCK
TAF
KMCK 171734Z 1718/1818 12009KT 2SM -FZDZ BR OVC002
     FM172000 11007KT 5SM BR OVC007
     FM180400 09005KT 3SM BR OVC003
      TEMPO 1805/1809 1SM -SHSN BR
     FM181600 07004KT 5SM BR OVC006=



000
FTUS43 KGLD 171614 AAB
TAFMCK
TAF AMD
KMCK 171614Z 1716/1812 12007KT 1SM BR OVC002
     FM171900 11007KT P6SM OVC004
     FM172200 10007KT P6SM OVC006
     FM180100 10007KT 4SM -SN BR OVC004
      TEMPO 1804/1808 2SM -SN BR
     FM181000 07004KT P6SM OVC005=



000
FTUS43 KGLD 171614 AAB
TAFMCK
TAF AMD
KMCK 171614Z 1716/1812 12007KT 1SM BR OVC002
     FM171900 11007KT P6SM OVC004
     FM172200 10007KT P6SM OVC006
     FM180100 10007KT 4SM -SN BR OVC004
      TEMPO 1804/1808 2SM -SN BR
     FM181000 07004KT P6SM OVC005=



000
FTUS43 KGLD 171506 AAC
TAFGLD
TAF AMD
KGLD 171506Z 1715/1812 11008KT 1/4SM FG VV002
     FM171800 11009KT 3SM BR OVC005
     FM180000 08007KT P6SM VCSH OVC005
     FM180300 08006KT 3SM -SN BR BKN007
      TEMPO 1804/1808 1SM -SN
     FM181000 02005KT P6SM BKN007=



000
FTUS43 KGLD 171506 AAA
TAFMCK
TAF AMD
KMCK 171506Z 1715/1812 09008KT 3SM BR OVC003
     FM172200 10007KT P6SM OVC006
     FM180100 10007KT 4SM -SN BR OVC004
      TEMPO 1804/1808 2SM -SN BR
     FM181000 07004KT P6SM OVC005=



000
FTUS43 KGLD 171506 AAA
TAFMCK
TAF AMD
KMCK 171506Z 1715/1812 09008KT 3SM BR OVC003
     FM172200 10007KT P6SM OVC006
     FM180100 10007KT 4SM -SN BR OVC004
      TEMPO 1804/1808 2SM -SN BR
     FM181000 07004KT P6SM OVC005=



000
FTUS43 KGLD 171238 AAB
TAFGLD
TAF AMD
KGLD 171238Z 1713/1812 13007KT 4SM BR OVC005
      TEMPO 1713/1717 1SM BR OVC002
     FM180000 08007KT P6SM VCSH OVC005
     FM180300 08006KT 3SM -SN BR BKN007
      TEMPO 1804/1808 1SM -SN
     FM181000 02005KT P6SM BKN007=



000
FTUS43 KGLD 171150 AAA
TAFGLD
TAF AMD
KGLD 171150Z 1712/1812 13007KT P6SM OVC005
      TEMPO 1713/1717 3SM BR OVC002
     FM180000 08007KT P6SM VCSH OVC005
     FM180300 08006KT 3SM -SN BR BKN007
      TEMPO 1804/1808 1SM -SN
     FM181000 02005KT P6SM BKN007=



000
FTUS43 KGLD 171126
TAFMCK
TAF
KMCK 171126Z 1712/1812 10007KT P6SM OVC006
     FM180100 10007KT 4SM -SN BR OVC004
      TEMPO 1804/1808 2SM -SN BR
     FM181000 07004KT P6SM OVC005=



000
FTUS43 KGLD 171126
TAFGLD
TAF
KGLD 171126Z 1712/1812 13007KT P6SM OVC005
     FM180000 08007KT P6SM VCSH OVC005
     FM180300 08006KT 3SM -SN BR BKN007
      TEMPO 1804/1808 1SM -SN
     FM181000 02005KT P6SM BKN007=



000
FTUS43 KGLD 171126
TAFMCK
TAF
KMCK 171126Z 1712/1812 10007KT P6SM OVC006
     FM180100 10007KT 4SM -SN BR OVC004
      TEMPO 1804/1808 2SM -SN BR
     FM181000 07004KT P6SM OVC005=



000
FTUS43 KGLD 170520
TAFGLD
TAF
KGLD 170520Z 1706/1806 13007KT P6SM SCT006 BKN150
      TEMPO 1706/1709 BKN006
     FM170900 11006KT 3SM BR OVC006
     FM171500 13008KT P6SM SCT006 OVC012
     FM172200 07008KT P6SM VCSH SCT008 OVC015
     FM180200 35011KT P6SM VCSH OVC010=



000
FTUS43 KGLD 170520
TAFMCK
TAF
KMCK 170520Z 1706/1806 11007KT P6SM SCT003 BKN006
     FM170800 11005KT 3SM BR OVC003
     FM171500 11007KT P6SM SCT006 OVC012
     FM180000 08006KT P6SM VCSH SCT004 OVC008=



000
FTUS43 KGLD 170520
TAFMCK
TAF
KMCK 170520Z 1706/1806 11007KT P6SM SCT003 BKN006
     FM170800 11005KT 3SM BR OVC003
     FM171500 11007KT P6SM SCT006 OVC012
     FM180000 08006KT P6SM VCSH SCT004 OVC008=



000
FTUS43 KGLD 170204 AAB
TAFGLD
TAF AMD
KGLD 170204Z 1702/1724 13012KT P6SM BKN150
     FM170500 16007KT P6SM SCT007 BKN012
     FM171000 16005KT 5SM BR OVC007
     FM171500 13008KT P6SM SCT007 OVC012=



000
FTUS43 KGLD 170204 AAA
TAFMCK
TAF AMD
KMCK 170204Z 1702/1724 VRB05KT P6SM SCT015 SCT200
     FM170400 10005KT P6SM SCT006 BKN010
     FM170600 10005KT P6SM -SHSN SCT003 BKN006
     FM171000 11005KT 4SM BR OVC003
     FM171500 12007KT P6SM SCT006 OVC012=



000
FTUS43 KGLD 170204 AAA
TAFMCK
TAF AMD
KMCK 170204Z 1702/1724 VRB05KT P6SM SCT015 SCT200
     FM170400 10005KT P6SM SCT006 BKN010
     FM170600 10005KT P6SM -SHSN SCT003 BKN006
     FM171000 11005KT 4SM BR OVC003
     FM171500 12007KT P6SM SCT006 OVC012=



000
FTUS43 KGLD 162320
TAFMCK
TAF
KMCK 162320Z 1700/1724 VRB05KT P6SM SCT015 SCT200
     FM170200 10005KT P6SM SCT006 BKN010
     FM170600 10005KT P6SM -SHSN SCT003 BKN006
     FM171000 11005KT 4SM BR OVC003
     FM171500 12007KT P6SM SCT006 OVC012=



000
FTUS43 KGLD 162320
TAFGLD
TAF
KGLD 162320Z 1700/1724 15012KT P6SM BKN150
     FM170500 16007KT P6SM SCT007 BKN012
     FM171000 16005KT 5SM BR OVC007
     FM171500 13008KT P6SM SCT007 OVC012=



000
FTUS43 KGLD 162320
TAFMCK
TAF
KMCK 162320Z 1700/1724 VRB05KT P6SM SCT015 SCT200
     FM170200 10005KT P6SM SCT006 BKN010
     FM170600 10005KT P6SM -SHSN SCT003 BKN006
     FM171000 11005KT 4SM BR OVC003
     FM171500 12007KT P6SM SCT006 OVC012=



000
FTUS43 KGLD 161931 AAA
TAFMCK
TAF AMD
KMCK 161931Z 1620/1718 VRB05KT P6SM FEW015
     FM170200 10005KT P6SM SCT007 BKN010
     FM170600 10005KT P6SM SCT003 BKN007
     FM170900 11005KT 4SM BR OVC003=



000
FTUS43 KGLD 161931 AAA
TAFMCK
TAF AMD
KMCK 161931Z 1620/1718 VRB05KT P6SM FEW015
     FM170200 10005KT P6SM SCT007 BKN010
     FM170600 10005KT P6SM SCT003 BKN007
     FM170900 11005KT 4SM BR OVC003=



000
FTUS43 KGLD 161732
TAFGLD
TAF
KGLD 161732Z 1618/1718 VRB05KT P6SM SCT250
     FM162100 16008KT P6SM BKN150
     FM170500 16007KT P6SM SCT008 BKN015
     FM171000 16005KT 5SM BR OVC005
     FM171500 15008KT P6SM OVC007=



000
FTUS43 KGLD 161732
TAFMCK
TAF
KMCK 161732Z 1618/1718 VRB04KT P6SM OVC015
     FM162000 11003KT P6SM SCT015
     FM170100 10005KT P6SM SCT007 BKN010
     FM170600 10005KT P6SM SCT003 BKN007
     FM170900 11005KT 4SM BR OVC003=



000
FTUS43 KGLD 161732
TAFMCK
TAF
KMCK 161732Z 1618/1718 VRB04KT P6SM OVC015
     FM162000 11003KT P6SM SCT015
     FM170100 10005KT P6SM SCT007 BKN010
     FM170600 10005KT P6SM SCT003 BKN007
     FM170900 11005KT 4SM BR OVC003=



000
FTUS43 KGLD 161540 AAA
TAFMCK
TAF AMD
KMCK 161540Z 1616/1712 31006KT P6SM SCT008 OVC010
     FM161800 VRB04KT P6SM BKN008
     FM162300 11005KT P6SM BKN008=



000
FTUS43 KGLD 161540 AAA
TAFMCK
TAF AMD
KMCK 161540Z 1616/1712 31006KT P6SM SCT008 OVC010
     FM161800 VRB04KT P6SM BKN008
     FM162300 11005KT P6SM BKN008=



000
FTUS43 KGLD 161540 AAA
TAFMCK
TAF AMD
KMCK 161540Z 1616/1712 31006KT P6SM SCT008 OVC010
     FM161800 VRB04KT P6SM BKN008
     FM162300 11005KT P6SM BKN008=



000
FTUS43 KGLD 161540 AAA
TAFMCK
TAF AMD
KMCK 161540Z 1616/1712 31006KT P6SM SCT008 OVC010
     FM161800 VRB04KT P6SM BKN008
     FM162300 11005KT P6SM BKN008=



    US Dept of Commerce
    National Oceanic and Atmospheric Administration
    National Weather Service
    1325 East West Highway
    Silver Spring, MD 20910
    Page Author: NWS Internet Services Team
Disclaimer
Information Quality
Credits
Glossary
Privacy Policy
Freedom of Information Act (FOIA)
About Us
Career Opportunities